Time;durP1;ratioP1;P1;durP2;ratioP2;P2;SDS_P1;SDS_P2;PMS_P1;PMS_P2;Temp;Humidity;BMP_temperature;BMP_pressure;BME280_temperature;BME280_humidity;BME280_pressure;Samples;Min_cycle;Max_cycle;Signal;HPM_P1;HPM_P2
2022/10/13 00:02:02;;;;;;;27.23;16.40;;;;;;;7.04;100.00;100429.19;5095279;28;20024;-84
2022/10/13 00:04:27;;;;;;;33.45;16.88;;;;;;;7.09;100.00;100440.31;5094913;28;20020;-84
2022/10/13 00:06:52;;;;;;;28.67;17.00;;;;;;;7.02;100.00;100431.81;5094695;28;20528;-84
2022/10/13 00:09:18;;;;;;;31.95;15.90;;;;;;;6.94;100.00;100425.94;5094856;28;20055;-84
2022/10/13 00:11:43;;;;;;;26.60;15.98;;;;;;;6.89;100.00;100417.41;5094379;28;20050;-84
2022/10/13 00:14:08;;;;;;;35.20;18.42;;;;;;;6.98;100.00;100430.16;5094899;28;20035;-84
2022/10/13 00:16:34;;;;;;;30.30;16.95;;;;;;;6.88;100.00;100413.09;5094247;28;20024;-83
2022/10/13 00:18:59;;;;;;;26.10;16.75;;;;;;;6.91;100.00;100431.16;5094747;28;20073;-84
2022/10/13 00:21:26;;;;;;;31.95;17.83;;;;;;;6.89;100.00;100430.34;5094682;28;20027;-84
2022/10/13 00:23:53;;;;;;;30.00;17.45;;;;;;;6.87;100.00;100432.97;5094322;28;20475;-84
2022/10/13 00:26:20;;;;;;;32.42;19.05;;;;;;;6.84;100.00;100421.81;5093213;28;20114;-84
2022/10/13 00:28:46;;;;;;;31.80;17.35;;;;;;;6.80;100.00;100422.75;5094125;28;20023;-84
2022/10/13 00:31:23;;;;;;;32.53;19.00;;;;;;;6.81;100.00;100424.47;5094192;28;20126;-84
2022/10/13 00:33:49;;;;;;;36.70;20.40;;;;;;;6.76;100.00;100421.97;5092822;28;20019;-84
2022/10/13 00:36:15;;;;;;;32.08;18.88;;;;;;;6.69;100.00;100407.41;5092960;28;20366;-84
2022/10/13 00:38:42;;;;;;;34.05;20.25;;;;;;;6.65;100.00;100395.41;5093934;28;20031;-84
2022/10/13 00:41:08;;;;;;;39.00;22.08;;;;;;;6.73;100.00;100412.50;5094171;28;20028;-84
2022/10/13 00:43:52;;;;;;;43.83;22.55;;;;;;;6.74;100.00;100418.53;5092557;28;20378;-84
2022/10/13 00:46:17;;;;;;;33.70;19.73;;;;;;;6.71;100.00;100423.78;5094207;28;20534;-84
2022/10/13 00:48:44;;;;;;;38.17;22.70;;;;;;;6.63;100.00;100407.53;5094083;28;20146;-84
2022/10/13 00:51:11;;;;;;;35.63;20.58;;;;;;;6.67;100.00;100417.81;5092687;28;20047;-84
2022/10/13 00:53:38;;;;;;;35.95;21.83;;;;;;;6.62;100.00;100406.69;5091601;28;20016;-84
2022/10/13 00:56:06;;;;;;;35.80;20.83;;;;;;;6.57;100.00;100408.47;5093725;28;20042;-84
2022/10/13 00:58:34;;;;;;;37.65;22.27;;;;;;;6.53;100.00;100398.22;5093590;28;20077;-84
2022/10/13 01:01:02;;;;;;;36.50;21.20;;;;;;;6.56;100.00;100406.78;5093670;28;20474;-84
2022/10/13 01:03:27;;;;;;;43.13;23.60;;;;;;;6.59;100.00;100418.81;5093714;28;20027;-84
2022/10/13 01:05:58;;;;;;;39.42;23.30;;;;;;;6.57;100.00;100403.31;5093293;28;20024;-84
2022/10/13 01:08:28;;;;;;;35.78;22.13;;;;;;;6.59;100.00;100404.16;5092247;28;20024;-84
2022/10/13 01:11:05;;;;;;;36.03;22.50;;;;;;;6.60;100.00;100410.16;5093315;28;20584;-84
2022/10/13 01:13:36;;;;;;;39.90;21.30;;;;;;;6.50;100.00;100383.63;5093502;28;20023;-84
2022/10/13 01:16:15;;;;;;;39.38;22.02;;;;;;;6.55;100.00;100401.66;5093490;28;20042;-84
2022/10/13 01:18:47;;;;;;;38.95;22.52;;;;;;;6.59;100.00;100398.13;5091758;28;20020;-84
2022/10/13 01:21:39;;;;;;;35.10;21.42;;;;;;;6.59;100.00;100398.97;5093474;28;20359;-84
2022/10/13 01:24:27;;;;;;;39.28;23.90;;;;;;;6.60;100.00;100394.66;5089375;28;20120;-84
2022/10/13 01:27:02;;;;;;;41.65;23.10;;;;;;;6.50;100.00;100378.44;5093132;28;20065;-84
2022/10/13 01:29:56;;;;;;;34.67;22.52;;;;;;;6.57;100.00;100392.94;5091824;28;20027;-84
2022/10/13 01:32:30;;;;;;;37.40;24.20;;;;;;;6.52;100.00;100386.16;5092035;28;20024;-84
2022/10/13 01:35:05;;;;;;;36.17;22.45;;;;;;;6.55;100.00;100394.72;5093036;28;20035;-84
2022/10/13 01:37:40;;;;;;;34.35;22.38;;;;;;;6.52;100.00;100383.56;5093072;28;20027;-84
2022/10/13 01:40:16;;;;;;;32.03;21.88;;;;;;;6.54;100.00;100374.91;5093103;28;20434;-84
2022/10/13 01:43:03;;;;;;;37.80;23.65;;;;;;;6.58;100.00;100383.47;5092874;28;20031;-84
2022/10/13 01:45:34;;;;;;;36.20;24.02;;;;;;;6.53;100.00;100361.97;5092939;28;20101;-84
2022/10/13 01:48:02;;;;;;;37.80;23.70;;;;;;;6.57;100.00;100369.66;5092795;28;20093;-84
2022/10/13 01:50:29;;;;;;;34.90;23.75;;;;;;;6.62;100.00;100372.19;5092717;28;20020;-84
2022/10/13 01:52:59;;;;;;;36.47;25.08;;;;;;;6.63;100.00;100368.72;5092726;28;20054;-84
2022/10/13 01:55:25;;;;;;;36.70;25.27;;;;;;;6.62;100.00;100364.41;5091529;28;20512;-84
2022/10/13 01:57:50;;;;;;;36.55;23.13;;;;;;;6.60;100.00;100364.44;5092486;28;20024;-84
2022/10/13 02:00:19;;;;;;;37.30;26.33;;;;;;;6.55;100.00;100357.66;5092660;28;20031;-84
2022/10/13 02:03:09;;;;;;;47.90;26.75;;;;;;;6.61;100.00;100370.47;5092230;28;20020;-84
2022/10/13 02:06:01;;;;;;;37.88;26.55;;;;;;;6.64;100.00;100365.22;5091531;28;20028;-84
2022/10/13 02:08:35;;;;;;;37.05;26.55;;;;;;;6.61;100.00;100376.47;5091273;28;20055;-84
2022/10/13 02:11:09;;;;;;;42.88;28.88;;;;;;;6.59;100.00;100361.88;5092224;28;20023;-84
2022/10/13 02:13:38;;;;;;;42.08;27.77;;;;;;;6.58;100.00;100360.19;5092728;28;20031;-84
2022/10/13 02:16:04;;;;;;;45.45;30.92;;;;;;;6.55;100.00;100353.31;5092760;28;20367;-84
2022/10/13 02:18:33;;;;;;;42.10;30.00;;;;;;;6.52;100.00;100352.53;5092369;28;20020;-84
2022/10/13 02:21:00;;;;;;;43.10;27.83;;;;;;;6.54;100.00;100354.22;5092141;28;20073;-84
2022/10/13 02:23:27;;;;;;;45.67;28.08;;;;;;;6.53;100.00;100354.22;5092243;28;20103;-84
2022/10/13 02:25:54;;;;;;;40.30;28.10;;;;;;;6.49;100.00;100349.13;5090636;28;20038;-84
2022/10/13 02:28:20;;;;;;;54.08;31.23;;;;;;;6.43;100.00;100336.28;5092459;28;20016;-84
2022/10/13 02:30:46;;;;;;;46.60;28.60;;;;;;;6.49;100.00;100343.94;5092402;28;20481;-84
2022/10/13 02:33:13;;;;;;;46.22;29.13;;;;;;;6.45;100.00;100331.09;5092261;28;20051;-84
2022/10/13 02:35:38;;;;;;;47.20;31.50;;;;;;;6.45;100.00;100334.53;5090444;28;20058;-84
2022/10/13 02:38:04;;;;;;;44.47;30.02;;;;;;;6.49;100.00;100346.53;5091966;28;20032;-84
2022/10/13 02:40:30;;;;;;;48.08;31.02;;;;;;;6.43;100.00;100336.28;5091949;28;20508;-84
2022/10/13 02:42:55;;;;;;;48.22;30.58;;;;;;;6.45;100.00;100338.84;5092021;28;20024;-84
2022/10/13 02:45:21;;;;;;;58.33;34.10;;;;;;;6.47;100.00;100340.53;5092494;28;20024;-84
2022/10/13 02:47:48;;;;;;;48.97;32.03;;;;;;;6.47;100.00;100345.69;5091884;28;20024;-84
2022/10/13 02:50:13;;;;;;;53.17;34.78;;;;;;;6.40;100.00;100332.88;5092131;28;20099;-84
2022/10/13 02:52:38;;;;;;;44.45;30.50;;;;;;;6.35;100.00;100335.56;5091882;28;20099;-84
2022/10/13 02:55:05;;;;;;;41.63;30.80;;;;;;;6.45;100.00;100352.66;5091868;28;20097;-84
2022/10/13 02:57:30;;;;;;;48.17;30.60;;;;;;;6.37;100.00;100336.41;5092122;28;20020;-84
2022/10/13 02:59:55;;;;;;;50.08;32.10;;;;;;;6.36;100.00;100337.31;5091754;28;20340;-84
2022/10/13 03:02:21;;;;;;;48.03;33.92;;;;;;;6.33;100.00;100329.59;5091916;28;20031;-84
2022/10/13 03:04:47;;;;;;;44.00;30.75;;;;;;;6.41;100.00;100344.97;5091661;28;20027;-84
2022/10/13 03:07:13;;;;;;;45.25;31.30;;;;;;;6.41;100.00;100344.97;5091933;28;20573;-84
2022/10/13 03:09:38;;;;;;;47.33;32.30;;;;;;;6.35;100.00;100345.91;5092026;28;20032;-84
2022/10/13 03:12:04;;;;;;;41.30;28.73;;;;;;;6.35;100.00;100345.06;5091901;28;20020;-84
2022/10/13 03:14:29;;;;;;;42.92;28.95;;;;;;;6.33;100.00;100347.69;5091771;28;20016;-84
2022/10/13 03:16:55;;;;;;;46.15;29.70;;;;;;;6.30;100.00;100345.16;5094187;28;20021;-84
2022/10/13 03:19:20;;;;;;;51.70;33.05;;;;;;;6.21;100.00;100324.63;5095645;28;20020;-84
2022/10/13 03:21:45;;;;;;;45.60;30.75;;;;;;;6.21;100.00;100333.25;5095414;28;20031;-84
2022/10/13 03:24:11;;;;;;;50.40;32.35;;;;;;;6.18;100.00;100337.59;5095583;28;20026;-84
2022/10/13 03:26:36;;;;;;;48.92;33.60;;;;;;;6.18;100.00;100337.59;5095764;28;20031;-84
2022/10/13 03:29:02;;;;;;;44.47;31.00;;;;;;;6.17;100.00;100341.94;5095287;28;20512;-84
2022/10/13 03:31:27;;;;;;;44.08;30.17;;;;;;;6.14;100.00;100347.16;5094248;28;20450;-84
2022/10/13 03:33:53;;;;;;;43.45;29.67;;;;;;;6.16;100.00;100339.38;5095220;28;20020;-84
2022/10/13 03:36:18;;;;;;;55.92;35.55;;;;;;;6.11;100.00;100328.25;5095372;28;20023;-84
2022/10/13 03:38:44;;;;;;;53.00;34.35;;;;;;;6.06;100.00;100330.91;5094952;28;20359;-85
2022/10/13 03:41:13;;;;;;;55.42;34.75;;;;;;;6.08;100.00;100339.50;5095279;28;20461;-84
2022/10/13 03:43:39;;;;;;;40.38;30.27;;;;;;;5.97;100.00;100326.75;5095374;28;20059;-84
2022/10/13 03:46:06;;;;;;;45.53;28.33;;;;;;;5.92;100.00;100318.22;5095009;28;20020;-85
2022/10/13 03:48:33;;;;;;;43.72;28.63;;;;;;;5.99;100.00;100330.19;5095188;28;20059;-84
2022/10/13 03:50:59;;;;;;;42.58;27.70;;;;;;;6.03;100.00;100341.34;5094837;28;20035;-85
2022/10/13 03:53:25;;;;;;;39.22;26.45;;;;;;;5.98;100.00;100319.84;5095066;28;20363;-85
2022/10/13 03:55:53;;;;;;;42.60;27.15;;;;;;;6.05;100.00;100331.78;5093608;28;20116;-84
2022/10/13 03:58:19;;;;;;;43.80;28.75;;;;;;;6.05;100.00;100329.22;5094008;28;20031;-85
2022/10/13 04:00:44;;;;;;;37.08;26.10;;;;;;;6.03;100.00;100330.97;5093434;28;20121;-84
2022/10/13 04:03:10;;;;;;;41.05;26.20;;;;;;;6.04;100.00;100329.25;5094986;28;20103;-84
2022/10/13 04:05:36;;;;;;;39.35;26.65;;;;;;;6.05;100.00;100339.56;5094825;28;20455;-84
2022/10/13 04:08:01;;;;;;;39.92;27.02;;;;;;;6.03;100.00;100333.56;5094888;28;20040;-84
2022/10/13 04:10:27;;;;;;;49.55;27.60;;;;;;;5.99;100.00;100331.91;5094690;28;20415;-84
2022/10/13 04:12:52;;;;;;;33.83;25.00;;;;;;;5.96;100.00;100325.06;5094265;28;20023;-85
2022/10/13 04:15:17;;;;;;;37.22;24.92;;;;;;;5.96;100.00;100324.19;5093293;28;20016;-84
2022/10/13 04:17:43;;;;;;;36.38;25.38;;;;;;;5.98;100.00;100320.72;5094766;28;20034;-84
2022/10/13 04:20:09;;;;;;;42.50;26.55;;;;;;;5.92;100.00;100312.22;5094050;28;20085;-84
2022/10/13 04:22:34;;;;;;;38.30;26.58;;;;;;;5.97;100.00;100323.31;5094436;28;20512;-84
2022/10/13 04:24:59;;;;;;;40.17;27.48;;;;;;;5.90;100.00;100319.09;5094386;28;20027;-84
2022/10/13 04:27:25;;;;;;;37.40;26.58;;;;;;;5.89;100.00;100307.03;5093446;28;20020;-85
2022/10/13 04:29:51;;;;;;;40.92;27.55;;;;;;;5.86;100.00;100309.72;5094251;28;20031;-84
2022/10/13 04:32:17;;;;;;;40.20;27.95;;;;;;;5.85;100.00;100306.25;5094164;28;20031;-84
2022/10/13 04:34:42;;;;;;;38.75;27.35;;;;;;;5.76;100.00;100301.22;5092894;28;20016;-85
2022/10/13 04:37:07;;;;;;;37.15;27.00;;;;;;;5.90;100.00;100327.72;5093928;28;20020;-85
2022/10/13 04:39:33;;;;;;;46.67;31.77;;;;;;;5.83;100.00;100325.25;5094160;28;20016;-84
2022/10/13 04:41:58;;;;;;;41.53;28.05;;;;;;;5.80;100.00;100322.72;5092579;28;20024;-84
2022/10/13 04:44:23;;;;;;;39.78;28.55;;;;;;;5.84;100.00;100320.06;5092633;28;20111;-84
2022/10/13 04:46:49;;;;;;;40.13;29.15;;;;;;;5.82;100.00;100323.56;5092506;28;20020;-83
2022/10/13 04:49:15;;;;;;;41.65;29.15;;;;;;;5.78;100.00;100314.16;5093959;28;20024;-83
2022/10/13 04:51:40;;;;;;;49.45;31.20;;;;;;;5.76;100.00;100320.16;5093855;28;20529;-83
2022/10/13 04:54:06;;;;;;;40.60;28.33;;;;;;;5.72;100.00;100317.66;5093858;28;20028;-83
2022/10/13 04:56:31;;;;;;;39.70;26.95;;;;;;;5.67;100.00;100317.75;5093955;28;20513;-83
2022/10/13 04:58:56;;;;;;;44.95;27.75;;;;;;;5.68;100.00;100321.16;5094029;28;20017;-82
2022/10/13 05:01:23;;;;;;;45.58;31.50;;;;;;;5.63;100.00;100315.22;5093919;28;20031;-83
2022/10/13 05:03:51;;;;;;;48.97;30.10;;;;;;;5.66;100.00;100312.59;5093773;28;20081;-84
2022/10/13 05:06:19;;;;;;;43.45;27.70;;;;;;;5.60;100.00;100310.94;5093374;28;20066;-84
2022/10/13 05:08:44;;;;;;;42.67;28.27;;;;;;;5.62;100.00;100308.38;5093753;28;20067;-84
2022/10/13 05:11:10;;;;;;;44.25;28.65;;;;;;;5.67;100.00;100312.56;5093430;28;20090;-86
2022/10/13 05:13:36;;;;;;;43.40;28.13;;;;;;;5.63;100.00;100302.31;5093696;28;20032;-87
2022/10/13 05:16:13;;;;;;;44.25;30.80;;;;;;;5.69;100.00;100320.31;5093175;28;20028;-84
2022/10/13 05:18:38;;;;;;;46.65;29.73;;;;;;;5.67;100.00;100312.56;5093412;28;20038;-84
2022/10/13 05:21:07;;;;;;;39.78;28.67;;;;;;;5.70;100.00;100311.69;5093397;28;20024;-84
2022/10/13 05:23:32;;;;;;;53.30;32.22;;;;;;;5.64;100.00;100291.09;5093416;28;20031;-84
2022/10/13 05:26:01;;;;;;;45.78;27.85;;;;;;;5.67;100.00;100302.22;5093367;28;20016;-84
2022/10/13 05:28:27;;;;;;;48.42;30.58;;;;;;;5.75;100.00;100305.53;5091910;28;20439;-84
2022/10/13 05:30:52;;;;;;;45.72;29.98;;;;;;;5.74;100.00;100296.09;5092956;28;20024;-84
2022/10/13 05:33:18;;;;;;;47.67;32.00;;;;;;;5.76;100.00;100293.47;5093022;28;20016;-84
2022/10/13 05:35:43;;;;;;;46.53;30.42;;;;;;;5.78;100.00;100296.91;5091962;28;20081;-84
2022/10/13 05:38:09;;;;;;;46.92;32.13;;;;;;;5.73;100.00;100283.19;5092804;28;20024;-84
2022/10/13 05:40:34;;;;;;;52.17;35.13;;;;;;;5.81;100.00;100283.91;5091135;28;20181;-84
2022/10/13 05:42:59;;;;;;;51.72;35.70;;;;;;;5.85;100.00;100289.88;5092870;28;20039;-84
2022/10/13 05:45:28;;;;;;;50.03;33.60;;;;;;;5.93;100.00;100298.38;5092908;28;20027;-84
2022/10/13 05:47:53;;;;;;;45.90;31.30;;;;;;;5.95;100.00;100287.16;5092783;28;20027;-84
2022/10/13 05:50:19;;;;;;;52.08;32.60;;;;;;;6.07;100.00;100287.78;5092976;28;20034;-84
2022/10/13 05:52:45;;;;;;;69.43;41.92;;;;;;;6.23;100.00;100297.00;5093323;28;20024;-84
2022/10/13 05:55:13;;;;;;;60.97;41.50;;;;;;;6.26;100.00;100278.81;5092550;28;20553;-84
2022/10/13 05:57:41;;;;;;;62.33;41.25;;;;;;;6.40;100.00;100279.41;5092487;28;20020;-84
2022/10/13 06:00:09;;;;;;;53.88;34.90;;;;;;;6.68;100.00;100294.41;5092277;28;20064;-85
2022/10/13 06:02:58;;;;;;;51.45;33.83;;;;;;;6.86;100.00;100295.75;5091211;28;20106;-85
2022/10/13 06:05:26;;;;;;;58.63;40.90;;;;;;;6.92;100.00;100277.50;5092577;28;20016;-85
2022/10/13 06:07:54;;;;;;;51.28;35.47;;;;;;;7.09;100.00;100274.56;5090539;28;20035;-85
2022/10/13 06:10:23;;;;;;;47.78;31.10;;;;;;;7.24;100.00;100287.97;5090211;28;20024;-84
2022/10/13 06:12:48;;;;;;;44.70;31.67;;;;;;;7.40;99.93;100298.00;5089292;28;20370;-84
2022/10/13 06:15:14;;;;;;;44.90;30.48;;;;;;;7.55;99.31;100270.88;5092087;28;20099;-84
2022/10/13 06:17:39;;;;;;;49.33;32.45;;;;;;;7.69;98.89;100264.47;5090948;28;20024;-84
2022/10/13 06:20:06;;;;;;;46.45;32.63;;;;;;;7.99;97.75;100285.31;5069045;28;20036;-84
2022/10/13 06:22:33;;;;;;;59.78;37.50;;;;;;;8.27;97.10;100282.00;5069520;28;20228;-84
2022/10/13 06:24:59;;;;;;;45.10;30.40;;;;;;;8.55;94.77;100285.56;5069180;28;20042;-84
2022/10/13 06:27:25;;;;;;;46.35;29.08;;;;;;;8.83;93.24;100282.19;5069417;28;20028;-84
2022/10/13 06:29:50;;;;;;;39.30;27.77;;;;;;;9.01;92.18;100276.44;5069533;28;20049;-84
2022/10/13 06:32:16;;;;;;;39.90;27.08;;;;;;;9.60;91.06;100262.44;5069637;28;20024;-84
2022/10/13 06:34:41;;;;;;;36.20;25.27;;;;;;;9.91;87.11;100267.50;5052771;28;20539;-84
2022/10/13 06:37:06;;;;;;;44.25;27.23;;;;;;;9.98;86.40;100266.38;5069312;28;20028;-84
2022/10/13 06:39:32;;;;;;;49.38;30.75;;;;;;;10.29;85.32;100270.56;5069310;28;20033;-84
2022/10/13 06:41:57;;;;;;;43.80;27.08;;;;;;;10.46;84.68;100253.41;5069082;28;20031;-84
2022/10/13 06:44:22;;;;;;;38.45;26.52;;;;;;;10.81;84.06;100269.50;5069387;28;20052;-84
2022/10/13 06:46:48;;;;;;;42.70;26.13;;;;;;;11.26;82.30;100266.03;5069278;28;20107;-83
2022/10/13 06:49:13;;;;;;;40.13;25.95;;;;;;;11.57;81.18;100255.19;5069030;28;20064;-84
2022/10/13 06:51:38;;;;;;;42.47;28.02;;;;;;;11.42;80.84;100267.13;5088063;28;20028;-84
2022/10/13 06:54:04;;;;;;;38.30;25.10;;;;;;;11.69;81.54;100265.13;5094591;28;20020;-84
2022/10/13 06:56:29;;;;;;;46.10;25.90;;;;;;;13.33;77.72;100268.31;5096427;28;20012;-84
2022/10/13 06:58:54;;;;;;;40.60;25.27;;;;;;;14.30;71.55;100263.50;5094480;28;20028;-85
2022/10/13 07:01:20;;;;;;;50.75;30.45;;;;;;;14.06;69.85;100261.19;5094806;28;20047;-84
2022/10/13 07:03:49;;;;;;;39.40;27.08;;;;;;;13.43;71.99;100253.88;5096237;28;20062;-84
2022/10/13 07:06:15;;;;;;;41.63;26.95;;;;;;;13.68;71.79;100252.66;5095448;28;20043;-84
2022/10/13 07:08:40;;;;;;;51.63;28.90;;;;;;;13.63;70.83;100249.44;5096203;28;20028;-85
2022/10/13 07:11:08;;;;;;;46.42;27.67;;;;;;;13.45;71.79;100252.03;5095318;28;20040;-84
2022/10/13 07:13:33;;;;;;;37.85;26.10;;;;;;;13.15;72.72;100258.72;5095812;28;20027;-84
2022/10/13 07:16:02;;;;;;;49.47;26.33;;;;;;;12.98;73.72;100242.06;5095763;28;20107;-84
2022/10/13 07:18:28;;;;;;;39.15;27.10;;;;;;;13.01;73.92;100259.34;5095566;28;20467;-84
2022/10/13 07:20:53;;;;;;;40.30;26.42;;;;;;;12.75;74.51;100247.50;5094264;28;20042;-84
2022/10/13 07:23:18;;;;;;;44.45;27.98;;;;;;;12.68;74.48;100261.75;5095309;28;20026;-84
2022/10/13 07:25:44;;;;;;;42.42;26.58;;;;;;;12.36;75.44;100253.59;5095475;28;20020;-84
2022/10/13 07:28:09;;;;;;;37.50;25.55;;;;;;;12.56;76.44;100259.72;5095551;28;20036;-84
2022/10/13 07:30:38;;;;;;;35.78;23.95;;;;;;;12.84;76.40;100254.91;5094323;28;20117;-84
2022/10/13 07:33:03;;;;;;;36.22;25.20;;;;;;;12.86;75.42;100245.25;5094054;28;20016;-84
2022/10/13 07:35:28;;;;;;;40.15;24.95;;;;;;;12.80;75.51;100252.50;5095549;28;20093;-84
2022/10/13 07:37:54;;;;;;;30.63;23.75;;;;;;;12.91;75.50;100253.72;5095417;28;20016;-84
2022/10/13 07:40:19;;;;;;;40.60;26.25;;;;;;;12.70;75.34;100257.31;5093646;28;20020;-84
2022/10/13 07:42:44;;;;;;;28.10;21.25;;;;;;;12.84;76.33;100246.22;5094080;28;20027;-84
2022/10/13 07:45:10;;;;;;;32.17;22.35;;;;;;;12.99;75.82;100242.91;5093774;28;20028;-84
2022/10/13 07:47:35;;;;;;;31.83;21.35;;;;;;;13.14;75.62;100239.53;5094012;28;20027;-84
2022/10/13 07:50:00;;;;;;;34.25;22.48;;;;;;;13.02;75.28;100236.66;5095079;28;20035;-84
2022/10/13 07:52:26;;;;;;;38.03;25.48;;;;;;;12.90;75.43;100219.81;5095237;28;20016;-84
2022/10/13 07:54:51;;;;;;;33.58;22.75;;;;;;;12.94;75.72;100232.66;5095262;28;20077;-84
2022/10/13 07:57:17;;;;;;;35.10;22.38;;;;;;;13.09;76.10;100231.06;5095268;28;20028;-84
2022/10/13 07:59:42;;;;;;;35.78;22.45;;;;;;;12.93;75.56;100215.25;5094997;28;20069;-85
2022/10/13 08:02:08;;;;;;;31.77;22.73;;;;;;;13.19;75.57;100221.03;5094704;28;20447;-85
2022/10/13 08:04:34;;;;;;;29.30;22.13;;;;;;;13.35;75.50;100227.22;5094880;28;20027;-84
2022/10/13 08:07:00;;;;;;;33.35;22.50;;;;;;;13.30;74.94;100228.38;5094398;28;20032;-84
2022/10/13 08:09:26;;;;;;;34.63;23.60;;;;;;;13.31;74.75;100222.22;5093430;28;20111;-84
2022/10/13 08:11:52;;;;;;;37.65;23.05;;;;;;;13.09;74.62;100220.59;5094825;28;20095;-84
2022/10/13 08:14:17;;;;;;;32.22;23.27;;;;;;;13.12;75.18;100220.47;5094584;28;20031;-84
2022/10/13 08:16:44;;;;;;;31.42;20.70;;;;;;;13.00;75.51;100215.81;5094708;28;20024;-84
2022/10/13 08:19:14;;;;;;;34.17;22.15;;;;;;;13.07;75.97;100224.22;5094323;28;20107;-84
2022/10/13 08:21:40;;;;;;;31.10;20.77;;;;;;;13.07;75.34;100208.53;5094897;28;20486;-84
2022/10/13 08:24:08;;;;;;;30.38;20.85;;;;;;;12.91;75.98;100224.94;5094230;28;20020;-84
2022/10/13 08:26:33;;;;;;;30.65;20.40;;;;;;;12.90;76.76;100217.19;5094897;28;20107;-84
2022/10/13 08:28:59;;;;;;;28.77;18.98;;;;;;;13.09;76.82;100220.59;5094546;28;20039;-84
2022/10/13 08:31:24;;;;;;;26.52;19.30;;;;;;;13.20;76.54;100207.88;5094169;28;20024;-84
2022/10/13 08:33:51;;;;;;;27.13;17.90;;;;;;;13.31;77.22;100209.13;5094323;28;20480;-84
2022/10/13 08:36:17;;;;;;;31.55;19.13;;;;;;;13.30;76.40;100210.06;5092665;28;20028;-84
2022/10/13 08:38:43;;;;;;;26.10;17.42;;;;;;;13.35;76.61;100206.28;5094015;28;20039;-84
2022/10/13 08:41:30;;;;;;;25.58;17.67;;;;;;;13.25;75.90;100197.22;5093855;28;20422;-84
2022/10/13 08:44:04;;;;;;;26.33;16.15;;;;;;;13.38;76.23;100202.69;5094291;28;20032;-84
2022/10/13 08:46:48;;;;;;;27.67;16.88;;;;;;;13.25;76.86;100188.53;5094060;28;20023;-84
2022/10/13 08:49:16;;;;;;;25.30;16.35;;;;;;;13.39;77.46;100202.59;5093787;28;20054;-84
2022/10/13 08:51:42;;;;;;;29.80;17.55;;;;;;;13.38;76.56;100195.69;5093935;28;20463;-84
2022/10/13 08:54:13;;;;;;;28.83;18.02;;;;;;;13.41;76.60;100197.31;5093838;28;20061;-84
2022/10/13 08:56:38;;;;;;;26.17;16.90;;;;;;;13.41;76.74;100186.84;5093802;28;20498;-84
2022/10/13 08:59:05;;;;;;;24.73;16.65;;;;;;;13.42;77.14;100188.53;5093559;28;20047;-84
2022/10/13 09:01:35;;;;;;;26.60;17.50;;;;;;;13.46;76.65;100196.16;5093705;28;20521;-84
2022/10/13 09:04:09;;;;;;;32.28;17.83;;;;;;;13.46;76.90;100200.53;5094301;28;20012;-84
2022/10/13 09:06:39;;;;;;;25.85;16.60;;;;;;;13.29;76.78;100185.69;5090843;28;20048;-84
2022/10/13 09:09:07;;;;;;;23.42;15.63;;;;;;;13.27;77.83;100197.97;5090916;28;20059;-84
2022/10/13 09:11:44;;;;;;;24.95;15.80;;;;;;;13.26;77.85;100187.59;5091000;28;20040;-84
2022/10/13 09:14:26;;;;;;;24.58;16.20;;;;;;;13.28;78.00;100178.75;5090112;28;20028;-84
2022/10/13 09:16:51;;;;;;;25.52;16.55;;;;;;;13.30;78.11;100189.13;5090883;28;20395;-84
2022/10/13 09:19:33;;;;;;;23.75;16.45;;;;;;;13.25;78.08;100196.38;5090773;28;20020;-84
2022/10/13 09:22:15;;;;;;;28.25;18.15;;;;;;;13.33;78.24;100207.31;5090880;28;20505;-84
2022/10/13 09:24:40;;;;;;;30.95;18.77;;;;;;;13.20;78.10;100186.09;5090879;28;20024;-84
2022/10/13 09:27:15;;;;;;;26.33;17.98;;;;;;;13.22;78.90;100177.28;5090588;28;20037;-84
2022/10/13 09:29:42;;;;;;;25.92;16.52;;;;;;;13.37;79.27;100191.38;5090675;28;20075;-84
2022/10/13 09:32:16;;;;;;;27.52;18.58;;;;;;;13.51;79.19;100190.69;5090458;28;20205;-84
2022/10/13 09:34:42;;;;;;;26.75;18.50;;;;;;;13.55;79.18;100192.22;5090655;28;20024;-84
2022/10/13 09:37:22;;;;;;;29.33;18.42;;;;;;;13.59;78.68;100177.22;5091030;28;20096;-84
2022/10/13 09:40:12;;;;;;;24.10;16.95;;;;;;;13.70;78.64;100182.75;5093141;28;20016;-84
2022/10/13 09:42:37;;;;;;;38.05;19.17;;;;;;;13.61;77.96;100184.09;5093254;28;20032;-84
2022/10/13 09:45:15;;;;;;;27.95;18.15;;;;;;;13.60;78.88;100184.97;5091588;28;20016;-84
2022/10/13 09:47:50;;;;;;;25.85;17.55;;;;;;;13.65;79.22;100179.50;5093117;28;20348;-84
2022/10/13 09:50:17;;;;;;;24.52;17.50;;;;;;;13.81;79.49;100180.44;5092778;28;20052;-84
2022/10/13 09:52:44;;;;;;;26.45;18.17;;;;;;;13.65;78.30;100177.78;5092835;28;20089;-84
2022/10/13 09:55:32;;;;;;;33.55;18.55;;;;;;;13.52;78.55;100170.59;5092542;28;20215;-84
2022/10/13 09:58:05;;;;;;;29.20;17.83;;;;;;;13.49;79.07;100169.00;5092584;28;20020;-84
2022/10/13 10:00:31;;;;;;;30.52;18.85;;;;;;;13.56;79.34;100172.13;5092248;28;20563;-84
2022/10/13 10:03:02;;;;;;;27.50;18.00;;;;;;;13.57;79.09;100172.06;5092939;28;20019;-84
2022/10/13 10:05:40;;;;;;;;;;;;;;;13.70;79.42;100175.75;5092735;28;20475;-84
2022/10/13 10:08:15;;;;;;;27.33;17.92;;;;;;;13.67;79.53;100159.34;5092157;28;19965;-84
2022/10/13 10:10:41;;;;;;;30.73;19.23;;;;;;;13.71;79.21;100166.13;5091359;28;20463;-84
2022/10/13 10:13:13;;;;;;;27.25;17.77;;;;;;;13.72;79.13;100171.28;5092457;28;20028;-84
2022/10/13 10:15:50;;;;;;;31.15;17.42;;;;;;;13.79;79.07;100166.59;5092746;28;20095;-83
2022/10/13 10:18:40;;;;;;;28.20;18.30;;;;;;;13.83;79.38;100155.03;5092177;28;20020;-84
2022/10/13 10:21:10;;;;;;;26.48;17.15;;;;;;;13.88;79.14;100154.78;5090270;28;20093;-84
2022/10/13 10:23:46;;;;;;;27.60;17.05;;;;;;;13.79;79.44;100140.41;5092495;28;20099;-84
2022/10/13 10:26:19;;;;;;;29.80;18.15;;;;;;;13.88;80.21;100139.91;5091162;28;20039;-84
2022/10/13 10:29:17;;;;;;;24.58;16.17;;;;;;;13.91;79.00;100142.38;5092122;28;20122;-83
2022/10/13 10:32:16;;;;;;;26.17;17.17;;;;;;;14.00;79.74;100148.91;5009869;28;20036;-84
2022/10/13 10:35:12;;;;;;;29.33;17.42;;;;;;;14.04;79.72;100150.44;5009699;28;20037;-84
2022/10/13 10:38:07;;;;;;;30.90;18.60;;;;;;;14.07;78.05;100136.31;5008872;28;20034;-84
2022/10/13 10:40:47;;;;;;;26.67;16.42;;;;;;;14.01;78.28;100136.66;4951031;28;20039;-84
2022/10/13 10:43:31;;;;;;;28.90;17.20;;;;;;;13.98;78.11;100135.03;4951186;29;20035;-84
2022/10/13 10:45:58;;;;;;;31.23;16.75;;;;;;;13.98;78.83;100120.16;4951504;29;20047;-84
2022/10/13 10:48:29;;;;;;;30.27;17.92;;;;;;;14.03;79.17;100114.72;4951115;29;20041;-84
2022/10/13 10:50:56;;;;;;;27.00;15.73;;;;;;;14.09;79.21;100116.13;4935338;29;20069;-84
2022/10/13 10:53:27;;;;;;;22.15;13.95;;;;;;;14.14;77.89;100114.97;4951159;29;20527;-84
2022/10/13 10:56:14;;;;;;;29.92;15.32;;;;;;;14.22;78.19;100117.16;4951357;29;20031;-84
2022/10/13 10:58:58;;;;;;;25.67;15.50;;;;;;;14.25;77.62;100114.38;4951331;29;20590;-84
2022/10/13 11:01:46;;;;;;;29.70;17.00;;;;;;;14.27;76.74;100104.66;4951073;29;20438;-84
2022/10/13 11:04:39;;;;;;;21.65;14.07;;;;;;;14.32;77.54;100104.41;4935144;29;20039;-84
2022/10/13 11:07:28;;;;;;;21.48;12.55;;;;;;;14.38;76.55;100097.06;4957514;28;20491;-84
2022/10/13 11:09:55;;;;;;;27.52;12.52;;;;;;;14.44;77.16;100096.72;5009533;28;20047;-84
2022/10/13 11:12:20;;;;;;;23.55;13.95;;;;;;;14.52;77.23;100087.63;5009156;28;20160;-84
2022/10/13 11:14:52;;;;;;;21.35;13.27;;;;;;;14.45;76.37;100094.94;5009449;28;20489;-84
2022/10/13 11:17:30;;;;;;;20.60;13.48;;;;;;;14.46;76.70;100088.78;5018547;28;20033;-84
2022/10/13 11:19:57;;;;;;;20.52;12.40;;;;;;;14.50;76.72;100089.50;5029055;28;20060;-84